createdAt,value
2023-05-06T00:00:04.182Z,181.97
2023-05-06T00:01:04.379Z,181.17
2023-05-06T00:02:04.164Z,181.01
2023-05-06T00:03:04.270Z,182.91
2023-05-06T00:04:04.391Z,181.88
2023-05-06T00:05:04.160Z,182.26
2023-05-06T00:06:04.130Z,180.39
2023-05-06T00:07:04.188Z,181.00
2023-05-06T00:08:04.129Z,181.54
2023-05-06T00:09:04.106Z,179.21
2023-05-06T00:10:04.090Z,179.03
2023-05-06T00:11:04.059Z,181.61
2023-05-06T00:12:04.035Z,180.30
2023-05-06T00:13:04.091Z,180.77
2023-05-06T00:14:04.013Z,181.53
2023-05-06T00:15:03.988Z,182.54
2023-05-06T00:16:04.001Z,182.47
2023-05-06T00:17:03.959Z,180.65
2023-05-06T00:18:03.989Z,180.62
2023-05-06T00:19:03.914Z,181.97
2023-05-06T00:20:03.899Z,179.82
2023-05-06T00:21:03.881Z,181.57
2023-05-06T00:22:03.882Z,181.41
2023-05-06T00:23:03.864Z,179.42
2023-05-06T00:24:03.855Z,181.42
2023-05-06T00:25:03.833Z,180.89
2023-05-06T00:26:03.836Z,180.88
2023-05-06T00:27:03.835Z,181.24
2023-05-06T00:28:03.848Z,181.11
2023-05-06T00:29:03.848Z,182.30
2023-05-06T00:30:03.852Z,181.90
2023-05-06T00:31:03.835Z,181.03
2023-05-06T00:32:03.944Z,181.00
2023-05-06T00:33:03.956Z,179.98
2023-05-06T00:34:03.826Z,180.78
2023-05-06T00:35:03.806Z,179.86
2023-05-06T00:36:03.809Z,180.59
2023-05-06T00:37:03.838Z,181.68
2023-05-06T00:38:03.849Z,179.99
2023-05-06T00:39:03.873Z,181.34
2023-05-06T00:40:03.871Z,180.39
2023-05-06T00:41:03.878Z,180.98
2023-05-06T00:42:03.987Z,181.26
2023-05-06T00:43:03.868Z,181.94
2023-05-06T00:44:03.838Z,181.87
2023-05-06T00:45:03.819Z,179.58
2023-05-06T00:46:03.826Z,180.58
2023-05-06T00:47:03.782Z,180.79
2023-05-06T00:48:03.772Z,180.31
2023-05-06T00:49:03.932Z,179.78
2023-05-06T00:50:03.724Z,180.10
2023-05-06T00:51:03.699Z,179.85
2023-05-06T00:52:03.677Z,180.48
2023-05-06T00:53:03.674Z,180.85
2023-05-06T00:54:03.673Z,180.51
2023-05-06T00:55:03.620Z,179.95
2023-05-06T00:56:03.599Z,180.27
2023-05-06T00:57:03.588Z,180.74
2023-05-06T00:58:03.559Z,179.71
2023-05-06T00:59:03.549Z,180.03
2023-05-06T01:00:03.544Z,180.09
2023-05-06T01:01:03.560Z,178.79
2023-05-06T01:02:03.534Z,179.05
2023-05-06T01:03:03.533Z,179.35
2023-05-06T01:04:03.527Z,180.50
2023-05-06T01:05:03.576Z,179.69
2023-05-06T01:06:03.424Z,179.60
2023-05-06T01:07:03.409Z,178.70
2023-05-06T01:08:03.403Z,179.26
2023-05-06T01:09:03.398Z,180.27
2023-05-06T01:10:03.385Z,179.27
2023-05-06T01:11:03.354Z,180.63
2023-05-06T01:12:03.345Z,179.45
2023-05-06T01:13:03.447Z,179.33
2023-05-06T01:14:03.323Z,179.72
2023-05-06T01:15:03.323Z,178.77
2023-05-06T01:16:03.289Z,180.08
2023-05-06T01:17:03.366Z,179.22
2023-05-06T01:18:03.298Z,178.17
2023-05-06T01:19:03.242Z,178.43
2023-05-06T01:20:03.226Z,178.49
2023-05-06T01:21:03.279Z,179.39
2023-05-06T01:22:03.195Z,181.09
2023-05-06T01:23:03.169Z,180.28
2023-05-06T01:24:03.155Z,179.18
2023-05-06T01:25:03.148Z,179.11
2023-05-06T01:26:03.128Z,180.18
2023-05-06T01:27:03.121Z,178.54
2023-05-06T01:28:03.137Z,178.07
2023-05-06T01:29:03.084Z,177.80
2023-05-06T01:30:03.076Z,178.52
2023-05-06T01:31:03.079Z,179.16
2023-05-06T01:32:03.042Z,177.35
2023-05-06T01:33:03.047Z,178.15
2023-05-06T01:34:03.005Z,179.07
2023-05-06T01:35:02.993Z,178.25
2023-05-06T01:36:02.989Z,177.64
2023-05-06T01:37:03.079Z,178.21
2023-05-06T01:38:02.931Z,177.16
2023-05-06T01:39:02.918Z,177.75
2023-05-06T01:40:02.900Z,178.22
2023-05-06T01:41:02.890Z,178.53
2023-05-06T01:42:02.879Z,176.71
2023-05-06T01:43:02.881Z,178.17
2023-05-06T01:44:02.849Z,177.65
2023-05-06T01:45:02.830Z,178.42
2023-05-06T01:46:02.878Z,177.51
2023-05-06T01:47:02.822Z,178.97
2023-05-06T01:48:02.854Z,178.56
2023-05-06T01:49:02.784Z,178.25
2023-05-06T01:50:02.781Z,179.35
2023-05-06T01:51:02.777Z,177.81
2023-05-06T01:52:02.742Z,177.21
2023-05-06T01:53:02.801Z,177.07
2023-05-06T01:54:02.717Z,177.53
2023-05-06T01:55:02.697Z,176.80
2023-05-06T01:56:02.663Z,177.12
2023-05-06T01:57:02.661Z,177.39
2023-05-06T01:58:02.631Z,176.97
2023-05-06T01:59:02.623Z,177.26
2023-05-06T02:00:02.598Z,177.59
2023-05-06T02:01:02.593Z,177.10
2023-05-06T02:02:02.687Z,177.10
2023-05-06T02:03:02.590Z,176.13
2023-05-06T02:04:02.648Z,177.78
2023-05-06T02:05:02.499Z,177.15
2023-05-06T02:06:02.481Z,176.66
2023-05-06T02:07:02.473Z,176.09
2023-05-06T02:08:02.469Z,176.80
2023-05-06T02:09:02.520Z,178.22
2023-05-06T02:10:02.413Z,177.02
2023-05-06T02:11:02.404Z,176.50
2023-05-06T02:12:02.383Z,175.89
2023-05-06T02:13:02.395Z,176.42
2023-05-06T02:14:02.351Z,176.15
2023-05-06T02:15:02.329Z,176.37
2023-05-06T02:16:02.360Z,176.35
2023-05-06T02:17:02.300Z,176.60
2023-05-06T02:18:02.332Z,175.68
2023-05-06T02:19:02.265Z,177.06
2023-05-06T02:20:02.241Z,176.94
2023-05-06T02:21:02.225Z,176.22
2023-05-06T02:22:02.217Z,176.63
2023-05-06T02:23:02.212Z,175.74
2023-05-06T02:24:02.177Z,176.06
2023-05-06T02:25:02.225Z,176.80
2023-05-06T02:26:02.154Z,176.25
2023-05-06T02:27:02.150Z,177.05
2023-05-06T02:28:02.133Z,176.51
2023-05-06T02:29:02.113Z,175.65
2023-05-06T02:30:02.104Z,176.44
2023-05-06T02:31:02.086Z,177.16
2023-05-06T02:32:02.117Z,175.18
2023-05-06T02:33:02.109Z,176.25
2023-05-06T02:34:02.034Z,176.08
2023-05-06T02:35:02.022Z,175.85
2023-05-06T02:36:02.018Z,175.51
2023-05-06T02:37:01.996Z,174.65
2023-05-06T02:38:01.988Z,174.96
2023-05-06T02:39:01.967Z,175.29
2023-05-06T02:40:01.962Z,176.04
2023-05-06T02:41:02.013Z,176.14
2023-05-06T02:42:01.925Z,175.71
2023-05-06T02:43:01.948Z,175.09
2023-05-06T02:44:01.900Z,175.22
2023-05-06T02:45:01.877Z,175.27
2023-05-06T02:46:01.925Z,175.43
2023-05-06T02:47:01.855Z,176.35
2023-05-06T02:48:01.903Z,175.69
2023-05-06T02:49:01.815Z,175.14
2023-05-06T02:50:01.811Z,175.51
2023-05-06T02:51:01.791Z,175.08
2023-05-06T02:52:01.776Z,174.66
2023-05-06T02:53:01.760Z,174.75
2023-05-06T02:54:01.784Z,175.64
2023-05-06T02:55:01.734Z,174.86
2023-05-06T02:56:01.709Z,175.14
2023-05-06T02:57:01.693Z,174.74
2023-05-06T02:58:01.693Z,173.72
2023-05-06T02:59:01.669Z,174.11
2023-05-06T03:00:01.647Z,174.22
2023-05-06T03:01:01.674Z,173.28
2023-05-06T03:02:01.629Z,173.70
2023-05-06T03:03:01.692Z,173.65
2023-05-06T03:04:01.700Z,174.29
2023-05-06T03:05:01.603Z,175.01
2023-05-06T03:06:01.601Z,174.15
2023-05-06T03:07:01.581Z,174.77
2023-05-06T03:08:01.592Z,173.68
2023-05-06T03:09:01.567Z,172.85
2023-05-06T03:10:01.557Z,172.83
2023-05-06T03:11:01.541Z,172.83
2023-05-06T03:12:01.534Z,173.87
2023-05-06T03:13:01.572Z,172.53
2023-05-06T03:14:01.509Z,173.42
2023-05-06T03:15:01.510Z,173.52
2023-05-06T03:16:01.486Z,172.73
2023-05-06T03:17:01.493Z,172.63
2023-05-06T03:18:01.540Z,173.07
2023-05-06T03:19:01.454Z,173.29
2023-05-06T03:20:01.450Z,173.86
2023-05-06T03:21:01.478Z,173.28
2023-05-06T03:22:01.428Z,172.81
2023-05-06T03:23:01.416Z,173.51
2023-05-06T03:24:01.397Z,172.63
2023-05-06T03:25:01.391Z,172.81
2023-05-06T03:26:01.383Z,172.66
2023-05-06T03:27:01.380Z,172.27
2023-05-06T03:28:01.366Z,172.66
2023-05-06T03:29:01.569Z,173.58
2023-05-06T03:30:01.339Z,172.77
2023-05-06T03:31:01.339Z,172.21
2023-05-06T03:32:01.369Z,172.76
2023-05-06T03:33:01.385Z,171.58
2023-05-06T03:34:01.297Z,172.34
2023-05-06T03:35:01.273Z,172.42
2023-05-06T03:36:01.259Z,171.20
2023-05-06T03:37:01.265Z,172.63
2023-05-06T03:38:01.242Z,172.82
2023-05-06T03:39:01.225Z,171.11
2023-05-06T03:40:01.224Z,171.94
2023-05-06T03:41:01.201Z,171.22
2023-05-06T03:42:01.191Z,170.36
2023-05-06T03:43:01.186Z,170.84
2023-05-06T03:44:01.170Z,170.79
2023-05-06T03:45:01.239Z,173.17
2023-05-06T03:46:01.161Z,170.83
2023-05-06T03:47:01.125Z,171.45
2023-05-06T03:48:01.238Z,170.71
2023-05-06T03:49:01.116Z,170.73
2023-05-06T03:50:01.087Z,170.40
2023-05-06T03:51:01.065Z,171.76
2023-05-06T03:52:01.056Z,170.21
2023-05-06T03:53:01.053Z,171.14
2023-05-06T03:54:01.023Z,171.08
2023-05-06T03:55:01.014Z,170.19
2023-05-06T03:56:01.000Z,171.29
2023-05-06T03:57:00.984Z,169.87
2023-05-06T03:58:00.984Z,169.94
2023-05-06T03:59:00.951Z,170.08
2023-05-06T04:00:01.194Z,170.59
2023-05-06T04:01:01.062Z,170.55
2023-05-06T04:02:00.931Z,170.20
2023-05-06T04:03:00.948Z,170.51
2023-05-06T04:04:00.961Z,170.33
2023-05-06T04:05:00.886Z,170.44
2023-05-06T04:06:00.879Z,169.48
2023-05-06T04:07:00.865Z,170.17
2023-05-06T04:08:00.875Z,170.90
2023-05-06T04:09:00.844Z,170.12
2023-05-06T04:10:00.843Z,169.63
2023-05-06T04:11:00.817Z,169.25
2023-05-06T04:12:00.810Z,169.84
2023-05-06T04:13:00.893Z,170.10
2023-05-06T04:14:00.789Z,169.34
2023-05-06T04:15:01.101Z,169.90
2023-05-06T04:16:00.819Z,168.33
2023-05-06T04:17:01.068Z,167.51
2023-05-06T04:18:00.760Z,169.90
2023-05-06T04:19:00.728Z,169.36
2023-05-06T04:20:00.725Z,168.54
2023-05-06T04:21:00.717Z,167.73
2023-05-06T04:22:00.706Z,167.91
2023-05-06T04:23:00.682Z,168.45
2023-05-06T04:24:00.672Z,168.22
2023-05-06T04:25:00.681Z,167.02
2023-05-06T04:26:00.656Z,166.93
2023-05-06T04:27:00.647Z,168.32
2023-05-06T04:28:00.650Z,168.10
2023-05-06T04:29:00.634Z,167.42
2023-05-06T04:30:00.648Z,167.86
2023-05-06T04:31:00.626Z,166.95
2023-05-06T04:32:00.637Z,166.83
2023-05-06T04:33:00.690Z,166.99
2023-05-06T04:34:00.619Z,166.52
2023-05-06T04:35:00.628Z,167.33
2023-05-06T04:36:00.587Z,166.96
2023-05-06T04:37:00.580Z,168.06
2023-05-06T04:38:00.569Z,167.37
2023-05-06T04:39:00.555Z,167.14
2023-05-06T04:40:00.561Z,167.30
2023-05-06T04:41:00.561Z,167.36
2023-05-06T04:42:00.536Z,167.08
2023-05-06T04:43:00.533Z,166.51
2023-05-06T04:44:00.544Z,167.65
2023-05-06T04:45:00.525Z,167.63
2023-05-06T04:46:00.561Z,167.41
2023-05-06T04:47:00.510Z,167.04
2023-05-06T04:48:00.501Z,166.83
2023-05-06T04:49:00.642Z,166.33
2023-05-06T04:50:00.480Z,166.53
2023-05-06T04:51:00.466Z,165.87
2023-05-06T04:52:00.449Z,165.65
2023-05-06T04:53:00.450Z,164.82
2023-05-06T04:54:00.450Z,166.53
2023-05-06T04:55:00.433Z,164.77
2023-05-06T04:56:00.416Z,165.72
2023-05-06T04:57:00.414Z,165.83
2023-05-06T04:58:00.411Z,166.52
2023-05-06T04:59:00.384Z,165.85
2023-05-06T05:00:00.391Z,165.32
2023-05-06T05:01:00.385Z,165.67
2023-05-06T05:02:00.412Z,165.32
2023-05-06T05:03:00.426Z,165.08
2023-05-06T05:04:00.346Z,164.84
2023-05-06T05:05:00.396Z,165.63
2023-05-06T05:06:00.325Z,166.02
2023-05-06T05:07:00.307Z,165.21
2023-05-06T05:08:00.309Z,165.56
2023-05-06T05:09:00.296Z,163.96
2023-05-06T05:10:00.350Z,164.52
2023-05-06T05:11:00.329Z,164.75
2023-05-06T05:12:00.311Z,165.06
2023-05-06T05:13:00.407Z,164.18
2023-05-06T05:14:01.858Z,163.95
2023-05-06T05:15:00.231Z,164.84
2023-05-06T05:16:00.217Z,164.26
2023-05-06T05:17:00.233Z,163.88
2023-05-06T05:18:00.246Z,163.40
2023-05-06T05:19:02.936Z,163.78
2023-05-06T05:20:00.220Z,167.36
2023-05-06T05:21:00.151Z,166.10
2023-05-06T05:22:00.130Z,165.18
2023-05-06T05:23:00.108Z,164.99
2023-05-06T05:24:00.121Z,165.84
2023-05-06T05:25:00.121Z,164.57
2023-05-06T05:26:00.102Z,163.51
2023-05-06T05:27:00.066Z,162.80
2023-05-06T05:28:00.064Z,164.00
2023-05-06T05:29:00.010Z,163.66
2023-05-06T05:29:59.997Z,162.99
2023-05-06T05:31:00.074Z,163.74
2023-05-06T05:31:59.972Z,162.83
2023-05-06T05:33:00.049Z,162.97
2023-05-06T05:33:59.920Z,163.14
2023-05-06T05:34:59.901Z,162.49
2023-05-06T05:35:59.882Z,162.17
2023-05-06T05:36:59.917Z,160.90
2023-05-06T05:37:59.839Z,162.22
2023-05-06T05:38:59.821Z,162.15
2023-05-06T05:39:59.810Z,162.35
2023-05-06T05:40:59.784Z,162.35
2023-05-06T05:41:59.756Z,161.79
2023-05-06T05:42:59.749Z,160.18
2023-05-06T05:43:59.726Z,160.87
2023-05-06T05:44:59.725Z,161.42
2023-05-06T05:45:59.711Z,160.47
2023-05-06T05:46:59.687Z,160.21
2023-05-06T05:47:59.711Z,161.55
2023-05-06T05:48:59.653Z,160.21
2023-05-06T05:49:59.619Z,160.16
2023-05-06T05:50:59.591Z,158.74
2023-05-06T05:51:59.572Z,159.69
2023-05-06T05:52:59.619Z,159.47
2023-05-06T05:53:59.524Z,158.01
2023-05-06T05:54:59.542Z,158.58
2023-05-06T05:55:59.509Z,159.22
2023-05-06T05:56:59.489Z,158.93
2023-05-06T05:57:59.477Z,157.15
2023-05-06T05:58:59.436Z,156.39
2023-05-06T05:59:59.407Z,156.47
2023-05-06T06:00:59.395Z,156.60
2023-05-06T06:01:59.363Z,156.43
2023-05-06T06:02:59.518Z,156.86
2023-05-06T06:03:59.538Z,157.43
2023-05-06T06:04:59.396Z,156.36
2023-05-06T06:05:59.271Z,156.30
2023-05-06T06:06:59.250Z,155.71
2023-05-06T06:07:59.974Z,155.26
2023-05-06T06:08:59.198Z,158.92
2023-05-06T06:09:59.175Z,156.62
2023-05-06T06:10:59.157Z,155.33
2023-05-06T06:11:59.158Z,155.13
2023-05-06T06:12:59.138Z,154.59
2023-05-06T06:13:59.080Z,156.12
2023-05-06T06:14:59.051Z,154.96
2023-05-06T06:15:59.085Z,154.88
2023-05-06T06:16:59.006Z,154.85
2023-05-06T06:17:59.060Z,154.39
2023-05-06T06:18:58.987Z,153.85
2023-05-06T06:19:58.944Z,154.55
2023-05-06T06:20:58.916Z,154.26
2023-05-06T06:21:58.900Z,152.87
2023-05-06T06:22:58.864Z,152.26
2023-05-06T06:23:58.832Z,152.67
2023-05-06T06:24:59.028Z,151.49
2023-05-06T06:25:58.770Z,148.58
2023-05-06T06:26:58.752Z,148.77
2023-05-06T06:27:58.714Z,149.57
2023-05-06T06:28:58.685Z,149.95
2023-05-06T06:29:58.650Z,148.87
2023-05-06T06:30:58.628Z,150.70
2023-05-06T06:31:58.642Z,148.79
2023-05-06T06:32:58.600Z,147.52
2023-05-06T06:33:58.548Z,148.72
2023-05-06T06:34:58.503Z,147.48
2023-05-06T06:35:58.488Z,145.93
2023-05-06T06:36:58.445Z,145.96
2023-05-06T06:37:58.431Z,146.98
2023-05-06T06:38:58.406Z,144.94
2023-05-06T06:39:58.358Z,145.03
2023-05-06T06:40:58.415Z,142.80
2023-05-06T06:41:58.297Z,137.91
2023-05-06T06:42:58.270Z,141.79
2023-05-06T06:43:58.248Z,136.12
2023-05-06T06:44:58.215Z,138.01
2023-05-06T06:45:58.191Z,137.74
2023-05-06T06:46:58.155Z,132.67
2023-05-06T06:47:58.158Z,137.48
2023-05-06T06:48:58.165Z,135.83
2023-05-06T06:49:58.205Z,137.59
2023-05-06T06:50:58.203Z,136.78
2023-05-06T06:51:58.206Z,138.44
2023-05-06T06:52:58.237Z,139.09
2023-05-06T06:53:58.262Z,138.32
2023-05-06T06:54:58.308Z,138.74
2023-05-06T06:55:58.322Z,137.14
2023-05-06T06:56:58.454Z,139.30
2023-05-06T06:57:58.423Z,133.42
2023-05-06T06:58:58.482Z,133.91
2023-05-06T06:59:58.505Z,135.88
2023-05-06T07:00:58.572Z,137.73
2023-05-06T07:01:58.569Z,136.04
2023-05-06T07:02:58.652Z,136.62
2023-05-06T07:03:58.691Z,136.21
2023-05-06T07:04:58.681Z,137.03
2023-05-06T07:05:58.723Z,138.61
2023-05-06T07:06:58.744Z,133.20
2023-05-06T07:07:58.757Z,136.71
2023-05-06T07:08:58.783Z,135.85
2023-05-06T07:09:58.777Z,137.00
2023-05-06T07:10:58.811Z,137.19
2023-05-06T07:11:58.819Z,136.97
2023-05-06T07:12:58.922Z,137.99
2023-05-06T07:13:58.856Z,138.64
2023-05-06T07:14:58.886Z,138.05
2023-05-06T07:15:58.895Z,139.89
2023-05-06T07:16:58.930Z,138.72
2023-05-06T07:17:58.908Z,135.82
2023-05-06T07:18:58.856Z,135.86
2023-05-06T07:19:58.842Z,138.36
2023-05-06T07:20:58.846Z,139.21
2023-05-06T07:21:58.844Z,138.58
2023-05-06T07:22:58.844Z,139.69
2023-05-06T07:23:58.849Z,136.48
2023-05-06T07:24:58.858Z,140.33
2023-05-06T07:25:58.858Z,133.18
2023-05-06T07:26:58.868Z,136.86
2023-05-06T07:27:58.862Z,133.30
2023-05-06T07:28:58.968Z,138.30
2023-05-06T07:29:58.872Z,138.60
2023-05-06T07:30:58.914Z,137.40
2023-05-06T07:31:58.877Z,136.51
2023-05-06T07:32:58.942Z,138.12
2023-05-06T07:33:58.933Z,136.78
2023-05-06T07:34:58.954Z,134.45
2023-05-06T07:35:58.974Z,138.27
2023-05-06T07:36:58.975Z,137.23
2023-05-06T07:37:58.996Z,137.87
2023-05-06T07:38:59.011Z,135.80
2023-05-06T07:39:59.035Z,137.09
2023-05-06T07:40:59.059Z,134.01
2023-05-06T07:41:59.083Z,134.76
2023-05-06T07:42:59.100Z,136.08
2023-05-06T07:43:59.123Z,137.92
2023-05-06T07:44:59.239Z,136.70
2023-05-06T07:45:59.195Z,137.37
2023-05-06T07:46:59.253Z,137.69
2023-05-06T07:47:59.249Z,138.77
2023-05-06T07:48:59.232Z,139.78
2023-05-06T07:49:59.254Z,140.42
2023-05-06T07:50:59.247Z,139.46
2023-05-06T07:51:59.264Z,141.59
2023-05-06T07:52:59.291Z,139.03
2023-05-06T07:53:59.294Z,139.26
2023-05-06T07:54:59.282Z,138.91
2023-05-06T07:55:59.310Z,141.50
2023-05-06T07:56:59.346Z,137.30
2023-05-06T07:57:59.304Z,139.75
2023-05-06T07:58:59.379Z,139.95
2023-05-06T07:59:59.331Z,140.65
2023-05-06T08:00:59.473Z,139.60
2023-05-06T08:01:59.370Z,139.33
2023-05-06T08:02:59.443Z,140.75
2023-05-06T08:03:59.499Z,139.50
2023-05-06T08:04:59.394Z,141.53
2023-05-06T08:05:59.456Z,141.03
2023-05-06T08:06:59.406Z,143.78
2023-05-06T08:07:59.489Z,140.56
2023-05-06T08:08:59.429Z,142.00
2023-05-06T08:09:59.399Z,141.40
2023-05-06T08:10:59.384Z,140.89
2023-05-06T08:11:59.375Z,140.72
2023-05-06T08:12:59.391Z,141.48
2023-05-06T08:13:59.330Z,142.21
2023-05-06T08:14:59.326Z,141.35
2023-05-06T08:15:59.366Z,139.75
2023-05-06T08:16:59.412Z,142.50
2023-05-06T08:18:06.984Z,141.99
2023-05-06T08:19:00.280Z,142.28
2023-05-06T08:19:59.251Z,142.68
2023-05-06T08:20:59.230Z,143.34
2023-05-06T08:21:59.198Z,143.88
2023-05-06T08:22:59.165Z,143.29
2023-05-06T08:23:59.151Z,143.26
2023-05-06T08:24:59.125Z,142.06
2023-05-06T08:25:59.099Z,141.22
2023-05-06T08:26:59.071Z,143.74
2023-05-06T08:27:59.054Z,141.40
2023-05-06T08:28:59.069Z,143.66
2023-05-06T08:29:58.998Z,144.17
2023-05-06T08:30:58.990Z,141.76
2023-05-06T08:31:59.035Z,140.92
2023-05-06T08:32:59.047Z,142.11
2023-05-06T08:33:58.890Z,141.27
2023-05-06T08:34:58.861Z,140.38
2023-05-06T08:35:58.859Z,137.37
2023-05-06T08:36:58.801Z,140.49
2023-05-06T08:37:58.795Z,139.87
2023-05-06T08:38:58.821Z,139.25
2023-05-06T08:39:59.946Z,138.46
2023-05-06T08:40:58.863Z,135.28
2023-05-06T08:41:58.884Z,139.36
2023-05-06T08:42:58.926Z,139.20
2023-05-06T08:43:58.947Z,138.76
2023-05-06T08:44:58.963Z,136.74
2023-05-06T08:45:59.029Z,138.99
2023-05-06T08:46:59.019Z,136.63
2023-05-06T08:47:59.072Z,136.86
2023-05-06T08:48:59.132Z,135.75
2023-05-06T08:49:59.081Z,135.97
2023-05-06T08:50:59.118Z,136.66
2023-05-06T08:51:59.130Z,134.78
2023-05-06T08:52:59.135Z,131.65
2023-05-06T08:53:59.162Z,134.32
2023-05-06T08:54:59.196Z,132.35
2023-05-06T08:55:59.194Z,135.58
2023-05-06T08:56:59.192Z,134.24
2023-05-06T08:57:59.206Z,134.84
2023-05-06T08:58:59.230Z,133.84
2023-05-06T08:59:59.239Z,132.58
2023-05-06T09:00:59.301Z,131.05
2023-05-06T09:01:59.332Z,132.86
2023-05-06T09:02:59.428Z,131.98
2023-05-06T09:03:59.372Z,132.17
2023-05-06T09:04:59.412Z,133.11
2023-05-06T09:05:59.475Z,127.49
2023-05-06T09:06:59.521Z,130.41
2023-05-06T09:07:59.531Z,131.86
2023-05-06T09:08:59.579Z,126.04
2023-05-06T09:09:59.674Z,131.33
2023-05-06T09:10:59.649Z,129.55
2023-05-06T09:11:59.682Z,127.59
2023-05-06T09:12:59.746Z,131.03
2023-05-06T09:13:59.749Z,131.40
2023-05-06T09:14:59.761Z,131.84
2023-05-06T09:15:59.778Z,128.85
2023-05-06T09:16:59.827Z,131.02
2023-05-06T09:17:59.815Z,130.45
2023-05-06T09:18:59.832Z,130.82
2023-05-06T09:19:59.873Z,127.67
2023-05-06T09:21:00.763Z,127.78
2023-05-06T09:21:59.886Z,125.23
2023-05-06T09:22:59.887Z,125.50
2023-05-06T09:23:59.899Z,125.65
2023-05-06T09:24:59.905Z,128.84
2023-05-06T09:25:59.909Z,125.43
2023-05-06T09:26:59.901Z,124.18
2023-05-06T09:27:59.897Z,123.19
2023-05-06T09:28:59.931Z,125.74
2023-05-06T09:29:59.946Z,123.96
2023-05-06T09:30:59.973Z,125.98
2023-05-06T09:31:59.959Z,127.06
2023-05-06T09:33:00.101Z,124.24
2023-05-06T09:33:59.998Z,123.05
2023-05-06T09:35:00.021Z,123.98
2023-05-06T09:36:00.057Z,124.02
2023-05-06T09:37:00.161Z,123.73
2023-05-06T09:38:00.143Z,123.06
2023-05-06T09:39:00.153Z,125.48
2023-05-06T09:40:00.267Z,122.54
2023-05-06T09:41:00.214Z,125.84
2023-05-06T09:42:00.247Z,121.20
2023-05-06T09:43:00.288Z,122.21
2023-05-06T09:44:00.327Z,122.38
2023-05-06T09:45:01.676Z,119.34
2023-05-06T09:46:00.421Z,121.32
2023-05-06T09:47:00.382Z,118.31
2023-05-06T09:48:00.486Z,122.05
2023-05-06T09:49:00.488Z,119.93
2023-05-06T09:50:00.485Z,117.93
2023-05-06T09:51:01.257Z,118.76
2023-05-06T09:52:00.567Z,122.85
2023-05-06T09:53:00.586Z,124.52
2023-05-06T09:54:00.620Z,123.05
2023-05-06T09:55:00.647Z,118.18
2023-05-06T09:56:00.679Z,121.27
2023-05-06T09:57:01.123Z,119.63
2023-05-06T09:58:00.745Z,120.73
2023-05-06T09:59:00.753Z,122.55
2023-05-06T10:00:01.071Z,120.16
2023-05-06T10:01:00.773Z,121.69
2023-05-06T10:02:00.837Z,119.01
2023-05-06T10:03:00.963Z,119.63
2023-05-06T10:04:01.015Z,123.02
2023-05-06T10:05:01.137Z,118.86
2023-05-06T10:06:00.898Z,117.72
2023-05-06T10:07:00.925Z,120.04
2023-05-06T10:08:00.967Z,121.59
2023-05-06T10:09:01.007Z,120.28
2023-05-06T10:10:01.006Z,119.41
2023-05-06T10:11:01.036Z,122.38
2023-05-06T10:12:01.068Z,118.87
2023-05-06T10:13:01.145Z,119.83
2023-05-06T10:14:01.134Z,117.29
2023-05-06T10:15:01.154Z,117.52
2023-05-06T10:16:01.217Z,120.75
2023-05-06T10:17:01.213Z,118.42
2023-05-06T10:18:01.260Z,115.54
2023-05-06T10:19:01.268Z,117.40
2023-05-06T10:20:01.293Z,120.40
2023-05-06T10:21:01.321Z,114.03
2023-05-06T10:22:01.604Z,115.97
2023-05-06T10:23:01.364Z,116.49
2023-05-06T10:24:01.392Z,117.56
2023-05-06T10:25:01.417Z,121.37
2023-05-06T10:26:01.456Z,117.55
2023-05-06T10:27:01.461Z,114.46
2023-05-06T10:28:01.490Z,121.49
2023-05-06T10:29:01.506Z,116.23
2023-05-06T10:30:01.540Z,111.84
2023-05-06T10:31:01.558Z,114.58
2023-05-06T10:32:01.643Z,114.92
2023-05-06T10:33:01.637Z,114.98
2023-05-06T10:34:01.637Z,113.28
2023-05-06T10:35:01.735Z,114.41
2023-05-06T10:36:01.682Z,115.51
2023-05-06T10:37:01.718Z,111.41
2023-05-06T10:38:01.745Z,115.08
2023-05-06T10:39:01.767Z,115.01
2023-05-06T10:40:01.791Z,111.68
2023-05-06T10:41:01.941Z,113.18
2023-05-06T10:42:01.836Z,113.86
2023-05-06T10:43:01.852Z,112.29
2023-05-06T10:44:01.878Z,114.19
2023-05-06T10:45:01.915Z,111.12
2023-05-06T10:46:02.022Z,113.63
2023-05-06T10:47:01.969Z,114.25
2023-05-06T10:48:02.022Z,112.59
2023-05-06T10:49:02.023Z,109.24
2023-05-06T10:50:02.055Z,115.94
2023-05-06T10:51:02.075Z,112.28
2023-05-06T10:52:02.087Z,114.40
2023-05-06T10:53:02.112Z,112.02
2023-05-06T10:54:02.154Z,108.13
2023-05-06T10:55:02.169Z,111.07
2023-05-06T10:56:02.182Z,110.27
2023-05-06T10:57:02.296Z,112.55
2023-05-06T10:58:02.219Z,109.68
2023-05-06T10:59:02.258Z,111.15
2023-05-06T11:00:02.294Z,114.64
2023-05-06T11:01:02.405Z,114.69
2023-05-06T11:02:02.370Z,108.35
2023-05-06T11:03:02.497Z,110.29
2023-05-06T11:04:02.399Z,111.60
2023-05-06T11:05:02.413Z,111.44
2023-05-06T11:06:02.442Z,110.45
2023-05-06T11:07:02.456Z,111.86
2023-05-06T11:08:02.497Z,107.66
2023-05-06T11:09:02.514Z,110.82
2023-05-06T11:10:02.528Z,110.73
2023-05-06T11:11:02.555Z,108.56
2023-05-06T11:12:02.563Z,107.72
2023-05-06T11:13:02.744Z,108.52
2023-05-06T11:14:02.622Z,103.39
2023-05-06T11:15:02.635Z,108.37
2023-05-06T11:16:02.718Z,107.40
2023-05-06T11:17:02.780Z,110.88
2023-05-06T11:18:02.869Z,109.56
2023-05-06T11:19:02.752Z,109.23
2023-05-06T11:20:02.781Z,103.29
2023-05-06T11:21:03.036Z,107.42
2023-05-06T11:22:02.838Z,109.97
2023-05-06T11:23:02.854Z,106.01
2023-05-06T11:24:02.869Z,107.66
2023-05-06T11:25:02.898Z,109.87
2023-05-06T11:26:02.925Z,108.00
2023-05-06T11:27:02.943Z,104.31
2023-05-06T11:28:02.971Z,106.20
2023-05-06T11:29:03.096Z,107.48
2023-05-06T11:30:03.031Z,107.81
2023-05-06T11:31:03.084Z,105.02
2023-05-06T11:32:03.052Z,105.92
2023-05-06T11:33:05.106Z,106.77
2023-05-06T11:34:03.101Z,107.17
2023-05-06T11:35:03.115Z,107.71
2023-05-06T11:36:03.146Z,104.04
2023-05-06T11:37:03.152Z,106.51
2023-05-06T11:38:03.182Z,102.93
2023-05-06T11:39:05.137Z,105.62
2023-05-06T11:40:03.256Z,105.64
2023-05-06T11:41:03.242Z,105.41
2023-05-06T11:42:03.253Z,105.06
2023-05-06T11:43:03.269Z,103.40
2023-05-06T11:44:03.280Z,106.68
2023-05-06T11:45:03.401Z,106.09
2023-05-06T11:46:03.419Z,105.82
2023-05-06T11:47:03.347Z,105.73
2023-05-06T11:48:03.389Z,102.41
2023-05-06T11:49:03.371Z,105.12
2023-05-06T11:50:03.396Z,104.53
2023-05-06T11:51:03.409Z,107.08
2023-05-06T11:52:03.427Z,103.96
2023-05-06T11:53:03.448Z,109.25
2023-05-06T11:54:03.473Z,102.49
2023-05-06T11:55:03.480Z,105.15
2023-05-06T11:56:03.499Z,104.67
2023-05-06T11:57:03.537Z,103.74
2023-05-06T11:58:03.544Z,106.75
2023-05-06T11:59:03.566Z,106.27
2023-05-06T12:00:03.592Z,106.92
2023-05-06T12:01:03.683Z,104.96
2023-05-06T12:02:03.675Z,105.77
2023-05-06T12:03:03.731Z,106.47
2023-05-06T12:04:03.779Z,106.71
2023-05-06T12:05:03.739Z,109.70
2023-05-06T12:06:03.727Z,109.90
2023-05-06T12:07:03.742Z,105.69
2023-05-06T12:08:06.400Z,104.23
2023-05-06T12:09:04.735Z,104.61
2023-05-06T12:10:03.695Z,105.31
2023-05-06T12:11:03.677Z,105.79
2023-05-06T12:12:03.647Z,106.44
2023-05-06T12:13:03.636Z,105.58
2023-05-06T12:14:03.574Z,106.63
2023-05-06T12:15:03.540Z,105.08
2023-05-06T12:16:03.528Z,103.36
2023-05-06T12:17:03.545Z,103.34
2023-05-06T12:18:03.523Z,100.70
2023-05-06T12:19:03.492Z,99.37
2023-05-06T12:20:03.504Z,104.45
2023-05-06T12:21:03.525Z,104.85
2023-05-06T12:22:03.543Z,103.10
2023-05-06T12:23:03.570Z,103.16
2023-05-06T12:24:03.661Z,101.82
2023-05-06T12:25:03.620Z,102.71
2023-05-06T12:26:03.643Z,104.77
2023-05-06T12:27:03.664Z,102.72
2023-05-06T12:28:03.686Z,100.48